»·PEaware :: DFGCW S23-0S9

DFGCW :: S23-0S9

FLIGHT INFORMATION

Flight Status: Arrived
Operator: Unknown
More flights by this operator :: More flights under this callsign
Pilot: Klaus A. (15485)
Aircraft: PILATUS PC-12 EAGLE
(PC12)
More flights by this aircraft type
Origin: S23 Ione Mun
United States
Destination: 0S9 Jefferson Co Intl
United States
More flights between these airports :: More routes between these airports
Route: +1S9 3W7
File this flight plan on PilotEdge
Remarks:
Altitude:
(Current/Filed)
16,500ft
Speed:
(Current/Filed)
230kts
Departed: 02-May-20 08:45 AM
Arrived: 02-May-20 09:52 AM
Distance/Time
Traveled:
218nm/1:07
Distance/Time
To Go:
Arrived

Flight Plot

Page will automatically refresh every two minutes.

Flight plan parsing failed; only flown route is shown


Map Options




Map Legend


Flown Route
Filed Route
Departure Airport
Arrival Airport
Navaid (VOR, NDB)
Fix

Horizontal Profiles

Position Reports

Time Latitude Longitude Heading Altitude Ground
Speed
02-May-20 08:06 48.713845 -117.413770 257 2112ft 0kts
02-May-20 08:07 48.713845 -117.413770 257 2112ft 0kts
02-May-20 08:08 48.713845 -117.413770 257 2112ft 0kts
02-May-20 08:09 48.713845 -117.413770 257 2112ft 0kts
02-May-20 08:10 48.713845 -117.413770 257 2112ft 0kts
02-May-20 08:11 48.713845 -117.413770 257 2112ft 0kts
02-May-20 08:12 48.713845 -117.413770 257 2112ft 0kts
02-May-20 08:13 48.713845 -117.413770 257 2112ft 0kts
02-May-20 08:14 48.713845 -117.413770 257 2112ft 0kts
02-May-20 08:15 48.713845 -117.413770 257 2112ft 0kts
02-May-20 08:16 48.713845 -117.413770 257 2112ft 0kts
02-May-20 08:17 48.713845 -117.413770 257 2112ft 0kts
02-May-20 08:18 48.713845 -117.413770 257 2112ft 0kts
02-May-20 08:19 48.713845 -117.413770 257 2112ft 0kts
02-May-20 08:20 48.713845 -117.413770 257 2112ft 0kts
02-May-20 08:21 48.713845 -117.413770 257 2112ft 0kts
02-May-20 08:22 48.713845 -117.413770 257 2112ft 0kts
02-May-20 08:23 48.713845 -117.413770 257 2112ft 0kts
02-May-20 08:24 48.713845 -117.413770 257 2112ft 0kts
02-May-20 08:25 48.713845 -117.413770 257 2112ft 0kts
02-May-20 08:26 48.713845 -117.413770 257 2112ft 0kts
02-May-20 08:27 48.713845 -117.413770 257 2112ft 0kts
02-May-20 08:28 48.713845 -117.413770 257 2112ft 0kts
02-May-20 08:29 48.713845 -117.413770 257 2112ft 0kts
02-May-20 08:30 48.713845 -117.413770 257 2112ft 0kts
02-May-20 08:31 48.713845 -117.413770 257 2112ft 0kts
02-May-20 08:32 48.713845 -117.413770 257 2112ft 0kts
02-May-20 08:33 48.713845 -117.413771 257 2112ft 0kts
02-May-20 08:34 48.713845 -117.413770 257 2112ft 0kts
02-May-20 08:35 48.713845 -117.413770 257 2112ft 0kts
02-May-20 08:36 48.713845 -117.413770 257 2112ft 0kts
02-May-20 08:37 48.713845 -117.413770 257 2112ft 0kts
02-May-20 08:38 48.713844 -117.413772 251 2112ft 0kts
02-May-20 08:39 48.713844 -117.413772 251 2112ft 0kts
02-May-20 08:40 48.713844 -117.413772 251 2112ft 0kts
02-May-20 08:41 48.713844 -117.413772 251 2112ft 0kts
02-May-20 08:42 48.713844 -117.413772 251 2112ft 0kts
02-May-20 08:43 48.713637 -117.414840 199 2112ft 0kts
02-May-20 08:44 48.708211 -117.413049 165 2125ft 105kts
02-May-20 08:45 48.672160 -117.395287 159 3557ft 153kts
02-May-20 08:46 48.632144 -117.391527 203 5615ft 153kts
02-May-20 08:47 48.598589 -117.432289 214 7542ft 155kts
02-May-20 08:48 48.561770 -117.471549 215 9138ft 167kts
02-May-20 08:49 48.523991 -117.513126 216 10661ft 171kts
02-May-20 08:50 48.485277 -117.555790 216 12057ft 175kts
02-May-20 08:52 48.442998 -117.602275 222 13157ft 191kts
02-May-20 08:53 48.400925 -117.648482 224 14401ft 189kts
02-May-20 08:54 48.358946 -117.694454 223 15440ft 192kts
02-May-20 08:55 48.316017 -117.742775 235 16402ft 190kts
02-May-20 08:56 48.288932 -117.814587 265 16476ft 211kts
02-May-20 08:57 48.268780 -117.903287 254 16507ft 234kts
02-May-20 08:58 48.242516 -117.994226 253 16505ft 241kts
02-May-20 08:59 48.215661 -118.087001 253 16505ft 243kts
02-May-20 09:00 48.188733 -118.180027 253 16504ft 244kts
02-May-20 09:01 48.161629 -118.273353 253 16504ft 244kts
02-May-20 09:02 48.135204 -118.364024 253 16487ft 244kts
02-May-20 09:03 48.108098 -118.456569 253 16477ft 243kts
02-May-20 09:04 48.082096 -118.545213 253 16478ft 244kts
02-May-20 09:05 48.054707 -118.638138 253 16455ft 245kts
02-May-20 09:05 48.032072 -118.714639 252 16453ft 245kts
02-May-20 09:07 47.999765 -118.823415 252 16453ft 246kts
02-May-20 09:08 47.971963 -118.916668 252 16453ft 246kts
02-May-20 09:08 47.948719 -118.994376 252 16453ft 246kts
02-May-20 09:09 47.922493 -119.088182 262 16455ft 241kts
02-May-20 09:11 47.927750 -119.199061 281 16452ft 230kts
02-May-20 09:11 47.932016 -119.278688 280 16452ft 231kts
02-May-20 09:12 47.936742 -119.374429 280 16452ft 232kts
02-May-20 09:14 47.940300 -119.486592 280 16452ft 232kts
02-May-20 09:14 47.945031 -119.566259 281 16452ft 232kts
02-May-20 09:15 47.949924 -119.662326 280 16469ft 231kts
02-May-20 09:16 47.954396 -119.758383 280 16460ft 232kts
02-May-20 09:17 47.958768 -119.854692 280 16477ft 232kts
02-May-20 09:18 47.963071 -119.950924 280 16480ft 232kts
02-May-20 09:19 47.967295 -120.047281 280 16479ft 233kts
02-May-20 09:20 47.971479 -120.144413 280 16484ft 236kts
02-May-20 09:21 47.975561 -120.241076 280 16441ft 238kts
02-May-20 09:22 47.979607 -120.339557 280 16425ft 237kts
02-May-20 09:23 47.983563 -120.437605 280 16425ft 237kts
02-May-20 09:24 47.987416 -120.535115 280 16503ft 235kts
02-May-20 09:25 47.991203 -120.632564 280 16503ft 235kts
02-May-20 09:26 47.994779 -120.727191 279 16504ft 236kts
02-May-20 09:27 47.998406 -120.825218 279 16490ft 237kts
02-May-20 09:28 48.001931 -120.923161 279 16540ft 235kts
02-May-20 09:29 48.005390 -121.020791 279 16558ft 235kts
02-May-20 09:30 48.008868 -121.119256 279 16023ft 237kts
02-May-20 09:31 48.012018 -121.216077 279 15045ft 232kts
02-May-20 09:32 48.015163 -121.311889 279 14068ft 231kts
02-May-20 09:33 48.018241 -121.407866 279 13090ft 231kts
02-May-20 09:34 48.021115 -121.503005 279 12504ft 222kts
02-May-20 09:35 48.023853 -121.593591 279 12505ft 214kts
02-May-20 09:36 48.026721 -121.684914 278 11773ft 225kts
02-May-20 09:37 48.029332 -121.778505 278 10804ft 226kts
02-May-20 09:38 48.031913 -121.872189 278 9829ft 225kts
02-May-20 09:39 48.034424 -121.965599 277 8848ft 224kts
02-May-20 09:40 48.036880 -122.059060 274 7858ft 227kts
02-May-20 09:41 48.039322 -122.154844 272 6864ft 233kts
02-May-20 09:42 48.041695 -122.251866 273 5868ft 235kts
02-May-20 09:43 48.043943 -122.347082 272 4854ft 220kts
02-May-20 09:44 48.045880 -122.433105 271 4496ft 188kts
02-May-20 09:45 48.047625 -122.510517 272 4503ft 185kts
02-May-20 09:46 48.049473 -122.593509 271 3630ft 204kts
02-May-20 09:47 48.051389 -122.677789 270 2651ft 201kts
02-May-20 09:48 48.055589 -122.760406 272 1698ft 195kts
02-May-20 09:49 48.071587 -122.833230 295 1082ft 149kts
02-May-20 09:50 48.058285 -122.836475 115 550ft 97kts
02-May-20 09:51 48.053027 -122.805859 102 112ft 25kts
02-May-20 09:52 48.053694 -122.806097 285 112ft 14kts
02-May-20 09:53 48.054510 -122.807498 213 112ft 0kts
02-May-20 09:54 48.054510 -122.807498 213 112ft 0kts
02-May-20 09:55 48.054511 -122.807498 213 112ft 0kts
02-May-20 09:56 48.054511 -122.807498 213 112ft 0kts
02-May-20 09:57 48.054511 -122.807498 213 112ft 0kts
02-May-20 09:58 48.054511 -122.807498 213 112ft 0kts
02-May-20 09:59 48.054511 -122.807498 213 112ft 0kts
02-May-20 10:00 48.054511 -122.807498 213 112ft 0kts
02-May-20 10:01 48.054511 -122.807498 213 112ft 0kts
02-May-20 10:02 48.054511 -122.807498 213 112ft 0kts
02-May-20 10:03 48.054511 -122.807498 213 112ft 0kts
02-May-20 10:04 48.054511 -122.807498 213 112ft 0kts
02-May-20 10:05 48.054511 -122.807498 213 112ft 0kts

Navigation Log

Ident Type
Flight plan parsing failed, navigation log unavailable